sensor_id;sensor_type;location;lat;lon;timestamp;temperature;humidity
5834;DHT22;2943;48.012;10.968;2023-02-22T00:01:10;4.50;99.90
5834;DHT22;2943;48.012;10.968;2023-02-22T00:03:48;4.50;99.90
5834;DHT22;2943;48.012;10.968;2023-02-22T00:06:17;4.50;99.90
5834;DHT22;2943;48.012;10.968;2023-02-22T00:08:47;4.40;99.90
5834;DHT22;2943;48.012;10.968;2023-02-22T00:11:15;4.30;99.90
5834;DHT22;2943;48.012;10.968;2023-02-22T00:13:43;4.30;99.90
5834;DHT22;2943;48.012;10.968;2023-02-22T00:16:13;4.30;99.90
5834;DHT22;2943;48.012;10.968;2023-02-22T00:18:41;4.30;99.90
5834;DHT22;2943;48.012;10.968;2023-02-22T00:21:09;4.20;99.90
5834;DHT22;2943;48.012;10.968;2023-02-22T00:23:39;4.20;99.90
5834;DHT22;2943;48.012;10.968;2023-02-22T00:26:07;4.20;99.90
5834;DHT22;2943;48.012;10.968;2023-02-22T00:28:35;4.20;99.90
5834;DHT22;2943;48.012;10.968;2023-02-22T00:31:04;4.20;99.90
5834;DHT22;2943;48.012;10.968;2023-02-22T00:33:31;4.20;99.90
5834;DHT22;2943;48.012;10.968;2023-02-22T00:35:58;4.20;99.90
5834;DHT22;2943;48.012;10.968;2023-02-22T00:38:25;4.10;99.90
5834;DHT22;2943;48.012;10.968;2023-02-22T00:40:52;4.10;99.90
5834;DHT22;2943;48.012;10.968;2023-02-22T00:43:20;4.10;99.90
5834;DHT22;2943;48.012;10.968;2023-02-22T00:45:46;4.10;99.90
5834;DHT22;2943;48.012;10.968;2023-02-22T00:48:15;4.00;99.90
5834;DHT22;2943;48.012;10.968;2023-02-22T00:50:42;4.00;99.90
5834;DHT22;2943;48.012;10.968;2023-02-22T00:53:10;4.00;99.90
5834;DHT22;2943;48.012;10.968;2023-02-22T00:55:37;4.00;99.90
5834;DHT22;2943;48.012;10.968;2023-02-22T00:58:05;3.90;99.90
5834;DHT22;2943;48.012;10.968;2023-02-22T01:00:34;3.90;99.90
5834;DHT22;2943;48.012;10.968;2023-02-22T01:03:02;3.90;99.90
5834;DHT22;2943;48.012;10.968;2023-02-22T01:05:31;3.90;99.90
5834;DHT22;2943;48.012;10.968;2023-02-22T01:07:59;3.90;99.90
5834;DHT22;2943;48.012;10.968;2023-02-22T01:10:28;3.90;99.90
5834;DHT22;2943;48.012;10.968;2023-02-22T01:12:57;3.90;99.90
5834;DHT22;2943;48.012;10.968;2023-02-22T01:15:26;3.90;99.90
5834;DHT22;2943;48.012;10.968;2023-02-22T01:17:55;3.90;99.90
5834;DHT22;2943;48.012;10.968;2023-02-22T01:20:23;3.90;99.90
5834;DHT22;2943;48.012;10.968;2023-02-22T01:22:53;3.90;99.90
5834;DHT22;2943;48.012;10.968;2023-02-22T01:25:23;3.80;99.90
5834;DHT22;2943;48.012;10.968;2023-02-22T01:27:51;3.80;99.90
5834;DHT22;2943;48.012;10.968;2023-02-22T01:30:20;3.80;99.90
5834;DHT22;2943;48.012;10.968;2023-02-22T01:32:47;3.70;99.90
5834;DHT22;2943;48.012;10.968;2023-02-22T01:35:17;3.70;99.90
5834;DHT22;2943;48.012;10.968;2023-02-22T01:37:44;3.70;99.90
5834;DHT22;2943;48.012;10.968;2023-02-22T01:40:18;3.60;99.90
5834;DHT22;2943;48.012;10.968;2023-02-22T01:42:49;3.60;99.90
5834;DHT22;2943;48.012;10.968;2023-02-22T01:45:40;3.60;99.90
5834;DHT22;2943;48.012;10.968;2023-02-22T01:48:10;3.60;99.90
5834;DHT22;2943;48.012;10.968;2023-02-22T01:50:40;3.60;99.90
5834;DHT22;2943;48.012;10.968;2023-02-22T01:53:11;3.60;99.90
5834;DHT22;2943;48.012;10.968;2023-02-22T01:55:40;3.60;99.90
5834;DHT22;2943;48.012;10.968;2023-02-22T01:58:07;3.60;99.90
5834;DHT22;2943;48.012;10.968;2023-02-22T02:00:35;3.50;99.90
5834;DHT22;2943;48.012;10.968;2023-02-22T02:03:04;3.50;99.90
5834;DHT22;2943;48.012;10.968;2023-02-22T02:05:33;3.50;99.90
5834;DHT22;2943;48.012;10.968;2023-02-22T02:08:07;3.40;99.90
5834;DHT22;2943;48.012;10.968;2023-02-22T02:10:40;3.40;99.90
5834;DHT22;2943;48.012;10.968;2023-02-22T02:13:08;3.40;99.90
5834;DHT22;2943;48.012;10.968;2023-02-22T02:15:36;3.30;99.90
5834;DHT22;2943;48.012;10.968;2023-02-22T02:18:05;3.30;99.90
5834;DHT22;2943;48.012;10.968;2023-02-22T02:20:39;3.30;99.90
5834;DHT22;2943;48.012;10.968;2023-02-22T02:23:22;3.30;99.90
5834;DHT22;2943;48.012;10.968;2023-02-22T02:26:24;3.20;99.90
5834;DHT22;2943;48.012;10.968;2023-02-22T02:29:22;3.10;99.90
5834;DHT22;2943;48.012;10.968;2023-02-22T02:32:14;3.10;99.90
5834;DHT22;2943;48.012;10.968;2023-02-22T02:34:49;3.10;99.90
5834;DHT22;2943;48.012;10.968;2023-02-22T02:37:21;3.00;99.90
5834;DHT22;2943;48.012;10.968;2023-02-22T02:39:55;3.00;99.90
5834;DHT22;2943;48.012;10.968;2023-02-22T02:42:29;3.00;99.90
5834;DHT22;2943;48.012;10.968;2023-02-22T02:45:01;3.00;99.90
5834;DHT22;2943;48.012;10.968;2023-02-22T02:47:33;3.00;99.90
5834;DHT22;2943;48.012;10.968;2023-02-22T02:50:05;3.10;99.90
5834;DHT22;2943;48.012;10.968;2023-02-22T02:52:34;3.10;99.90
5834;DHT22;2943;48.012;10.968;2023-02-22T02:55:04;3.10;99.90
5834;DHT22;2943;48.012;10.968;2023-02-22T02:57:32;3.10;99.90
5834;DHT22;2943;48.012;10.968;2023-02-22T02:59:58;3.10;99.90
5834;DHT22;2943;48.012;10.968;2023-02-22T03:02:39;3.10;99.90
5834;DHT22;2943;48.012;10.968;2023-02-22T03:05:24;3.20;99.90
5834;DHT22;2943;48.012;10.968;2023-02-22T03:08:01;3.10;99.90
5834;DHT22;2943;48.012;10.968;2023-02-22T03:10:43;3.20;99.90
5834;DHT22;2943;48.012;10.968;2023-02-22T03:13:18;3.20;99.90
5834;DHT22;2943;48.012;10.968;2023-02-22T03:15:52;3.20;99.90
5834;DHT22;2943;48.012;10.968;2023-02-22T03:18:28;3.20;99.90
5834;DHT22;2943;48.012;10.968;2023-02-22T03:21:00;3.20;99.90
5834;DHT22;2943;48.012;10.968;2023-02-22T03:23:36;3.20;99.90
5834;DHT22;2943;48.012;10.968;2023-02-22T03:26:08;3.20;99.90
5834;DHT22;2943;48.012;10.968;2023-02-22T03:28:37;3.20;99.90
5834;DHT22;2943;48.012;10.968;2023-02-22T03:31:09;3.20;99.90
5834;DHT22;2943;48.012;10.968;2023-02-22T03:33:40;3.20;99.90
5834;DHT22;2943;48.012;10.968;2023-02-22T03:36:13;3.20;99.90
5834;DHT22;2943;48.012;10.968;2023-02-22T03:38:43;3.20;99.90
5834;DHT22;2943;48.012;10.968;2023-02-22T03:41:15;3.20;99.90
5834;DHT22;2943;48.012;10.968;2023-02-22T03:43:45;3.20;99.90
5834;DHT22;2943;48.012;10.968;2023-02-22T03:46:13;3.20;99.90
5834;DHT22;2943;48.012;10.968;2023-02-22T03:48:45;3.20;99.90
5834;DHT22;2943;48.012;10.968;2023-02-22T03:51:18;3.10;99.90
5834;DHT22;2943;48.012;10.968;2023-02-22T03:53:46;3.10;99.90
5834;DHT22;2943;48.012;10.968;2023-02-22T03:56:21;3.00;99.90
5834;DHT22;2943;48.012;10.968;2023-02-22T03:58:50;3.00;99.90
5834;DHT22;2943;48.012;10.968;2023-02-22T04:01:17;3.00;99.90
5834;DHT22;2943;48.012;10.968;2023-02-22T04:03:49;3.00;99.90
5834;DHT22;2943;48.012;10.968;2023-02-22T04:06:16;3.00;99.90
5834;DHT22;2943;48.012;10.968;2023-02-22T04:08:42;3.00;99.90
5834;DHT22;2943;48.012;10.968;2023-02-22T04:11:09;3.00;99.90
5834;DHT22;2943;48.012;10.968;2023-02-22T04:13:36;3.00;99.90
5834;DHT22;2943;48.012;10.968;2023-02-22T04:16:04;3.00;99.90
5834;DHT22;2943;48.012;10.968;2023-02-22T04:18:31;3.00;99.90
5834;DHT22;2943;48.012;10.968;2023-02-22T04:20:59;3.00;99.90
5834;DHT22;2943;48.012;10.968;2023-02-22T04:23:25;2.90;99.90
5834;DHT22;2943;48.012;10.968;2023-02-22T04:25:52;2.90;99.90
5834;DHT22;2943;48.012;10.968;2023-02-22T04:28:19;2.90;99.90
5834;DHT22;2943;48.012;10.968;2023-02-22T04:30:46;2.90;99.90
5834;DHT22;2943;48.012;10.968;2023-02-22T04:33:13;2.90;99.90
5834;DHT22;2943;48.012;10.968;2023-02-22T04:35:40;2.80;99.90
5834;DHT22;2943;48.012;10.968;2023-02-22T04:38:09;2.80;99.90
5834;DHT22;2943;48.012;10.968;2023-02-22T04:40:35;2.80;99.90
5834;DHT22;2943;48.012;10.968;2023-02-22T04:43:02;2.70;99.90
5834;DHT22;2943;48.012;10.968;2023-02-22T04:45:29;2.70;99.90
5834;DHT22;2943;48.012;10.968;2023-02-22T04:47:56;2.70;99.90
5834;DHT22;2943;48.012;10.968;2023-02-22T04:50:23;2.70;99.90
5834;DHT22;2943;48.012;10.968;2023-02-22T04:52:50;2.60;99.90
5834;DHT22;2943;48.012;10.968;2023-02-22T04:55:18;2.60;99.90
5834;DHT22;2943;48.012;10.968;2023-02-22T04:57:45;2.60;99.90
5834;DHT22;2943;48.012;10.968;2023-02-22T05:00:16;2.60;99.90
5834;DHT22;2943;48.012;10.968;2023-02-22T05:02:43;2.60;99.90
5834;DHT22;2943;48.012;10.968;2023-02-22T05:05:12;2.50;99.90
5834;DHT22;2943;48.012;10.968;2023-02-22T05:07:39;2.50;99.90
5834;DHT22;2943;48.012;10.968;2023-02-22T05:10:07;2.50;99.90
5834;DHT22;2943;48.012;10.968;2023-02-22T05:12:35;2.50;99.90
5834;DHT22;2943;48.012;10.968;2023-02-22T05:15:03;2.50;99.90
5834;DHT22;2943;48.012;10.968;2023-02-22T05:17:30;2.50;99.90
5834;DHT22;2943;48.012;10.968;2023-02-22T05:19:57;2.50;99.90
5834;DHT22;2943;48.012;10.968;2023-02-22T05:22:23;2.50;99.90
5834;DHT22;2943;48.012;10.968;2023-02-22T05:24:50;2.40;99.90
5834;DHT22;2943;48.012;10.968;2023-02-22T05:27:18;2.50;99.90
5834;DHT22;2943;48.012;10.968;2023-02-22T05:29:46;2.50;99.90
5834;DHT22;2943;48.012;10.968;2023-02-22T05:32:13;2.50;99.90
5834;DHT22;2943;48.012;10.968;2023-02-22T05:34:40;2.50;99.90
5834;DHT22;2943;48.012;10.968;2023-02-22T05:37:06;2.50;99.90
5834;DHT22;2943;48.012;10.968;2023-02-22T05:39:33;2.50;99.90
5834;DHT22;2943;48.012;10.968;2023-02-22T05:42:00;2.50;99.90
5834;DHT22;2943;48.012;10.968;2023-02-22T05:44:27;2.50;99.90
5834;DHT22;2943;48.012;10.968;2023-02-22T05:46:55;2.50;99.90
5834;DHT22;2943;48.012;10.968;2023-02-22T05:49:21;2.50;99.90
5834;DHT22;2943;48.012;10.968;2023-02-22T05:51:49;2.40;99.90
5834;DHT22;2943;48.012;10.968;2023-02-22T05:54:16;2.40;99.90
5834;DHT22;2943;48.012;10.968;2023-02-22T05:56:42;2.40;99.90
5834;DHT22;2943;48.012;10.968;2023-02-22T05:59:09;2.30;99.90
5834;DHT22;2943;48.012;10.968;2023-02-22T06:01:36;2.30;99.90
5834;DHT22;2943;48.012;10.968;2023-02-22T06:04:04;2.30;99.90
5834;DHT22;2943;48.012;10.968;2023-02-22T06:06:31;2.30;99.90
5834;DHT22;2943;48.012;10.968;2023-02-22T06:08:58;2.20;99.90
5834;DHT22;2943;48.012;10.968;2023-02-22T06:11:24;2.20;99.90
5834;DHT22;2943;48.012;10.968;2023-02-22T06:13:52;2.20;99.90
5834;DHT22;2943;48.012;10.968;2023-02-22T06:16:19;2.20;99.90
5834;DHT22;2943;48.012;10.968;2023-02-22T06:18:46;2.20;99.90
5834;DHT22;2943;48.012;10.968;2023-02-22T06:21:15;2.20;99.90
5834;DHT22;2943;48.012;10.968;2023-02-22T06:23:42;2.20;99.90
5834;DHT22;2943;48.012;10.968;2023-02-22T06:26:09;2.20;99.90
5834;DHT22;2943;48.012;10.968;2023-02-22T06:28:36;2.10;99.90
5834;DHT22;2943;48.012;10.968;2023-02-22T06:31:03;2.10;99.90
5834;DHT22;2943;48.012;10.968;2023-02-22T06:33:30;2.10;99.90
5834;DHT22;2943;48.012;10.968;2023-02-22T06:35:56;2.10;99.90
5834;DHT22;2943;48.012;10.968;2023-02-22T06:38:25;2.10;99.90
5834;DHT22;2943;48.012;10.968;2023-02-22T06:40:53;2.00;99.90
5834;DHT22;2943;48.012;10.968;2023-02-22T06:43:20;2.00;99.90
5834;DHT22;2943;48.012;10.968;2023-02-22T06:45:48;2.00;99.90
5834;DHT22;2943;48.012;10.968;2023-02-22T06:48:16;2.10;99.90
5834;DHT22;2943;48.012;10.968;2023-02-22T06:50:42;2.10;99.90
5834;DHT22;2943;48.012;10.968;2023-02-22T06:53:09;2.10;99.90
5834;DHT22;2943;48.012;10.968;2023-02-22T06:55:37;2.10;99.90
5834;DHT22;2943;48.012;10.968;2023-02-22T06:58:04;2.10;99.90
5834;DHT22;2943;48.012;10.968;2023-02-22T07:00:31;2.10;99.90
5834;DHT22;2943;48.012;10.968;2023-02-22T07:02:59;2.10;99.90
5834;DHT22;2943;48.012;10.968;2023-02-22T07:05:27;2.10;99.90
5834;DHT22;2943;48.012;10.968;2023-02-22T07:08:00;2.10;99.90
5834;DHT22;2943;48.012;10.968;2023-02-22T07:10:28;2.10;99.90
5834;DHT22;2943;48.012;10.968;2023-02-22T07:12:57;2.10;99.90
5834;DHT22;2943;48.012;10.968;2023-02-22T07:15:25;2.20;99.90
5834;DHT22;2943;48.012;10.968;2023-02-22T07:17:52;2.20;99.90
5834;DHT22;2943;48.012;10.968;2023-02-22T07:20:20;2.20;99.90
5834;DHT22;2943;48.012;10.968;2023-02-22T07:22:47;2.20;99.90
5834;DHT22;2943;48.012;10.968;2023-02-22T07:25:14;2.20;99.90
5834;DHT22;2943;48.012;10.968;2023-02-22T07:27:41;2.30;99.90
5834;DHT22;2943;48.012;10.968;2023-02-22T07:30:16;2.30;99.90
5834;DHT22;2943;48.012;10.968;2023-02-22T07:32:43;2.30;99.90
5834;DHT22;2943;48.012;10.968;2023-02-22T07:35:14;2.30;99.90
5834;DHT22;2943;48.012;10.968;2023-02-22T07:37:41;2.40;99.90
5834;DHT22;2943;48.012;10.968;2023-02-22T07:40:08;2.40;99.90
5834;DHT22;2943;48.012;10.968;2023-02-22T07:42:52;2.40;99.90
5834;DHT22;2943;48.012;10.968;2023-02-22T07:45:24;2.50;99.90
5834;DHT22;2943;48.012;10.968;2023-02-22T07:47:51;2.80;99.90
5834;DHT22;2943;48.012;10.968;2023-02-22T07:50:19;3.10;99.90
5834;DHT22;2943;48.012;10.968;2023-02-22T07:52:47;3.10;99.90
5834;DHT22;2943;48.012;10.968;2023-02-22T07:55:15;3.20;99.90
5834;DHT22;2943;48.012;10.968;2023-02-22T07:57:42;3.20;99.90
5834;DHT22;2943;48.012;10.968;2023-02-22T08:00:10;3.20;99.90
5834;DHT22;2943;48.012;10.968;2023-02-22T08:02:40;3.20;99.90
5834;DHT22;2943;48.012;10.968;2023-02-22T08:05:08;3.20;99.90
5834;DHT22;2943;48.012;10.968;2023-02-22T08:07:36;3.30;99.90
5834;DHT22;2943;48.012;10.968;2023-02-22T08:10:03;3.30;99.90
5834;DHT22;2943;48.012;10.968;2023-02-22T08:12:31;3.30;99.90
5834;DHT22;2943;48.012;10.968;2023-02-22T08:14:58;3.40;99.90
5834;DHT22;2943;48.012;10.968;2023-02-22T08:17:25;3.40;99.90
5834;DHT22;2943;48.012;10.968;2023-02-22T08:19:53;3.40;99.90
5834;DHT22;2943;48.012;10.968;2023-02-22T08:22:20;3.50;99.90
5834;DHT22;2943;48.012;10.968;2023-02-22T08:24:48;3.50;99.90
5834;DHT22;2943;48.012;10.968;2023-02-22T08:27:22;3.50;99.90
5834;DHT22;2943;48.012;10.968;2023-02-22T08:29:49;3.60;99.90
5834;DHT22;2943;48.012;10.968;2023-02-22T08:32:16;3.60;99.90
5834;DHT22;2943;48.012;10.968;2023-02-22T08:34:43;3.70;99.90
5834;DHT22;2943;48.012;10.968;2023-02-22T08:37:11;3.80;99.90
5834;DHT22;2943;48.012;10.968;2023-02-22T08:39:38;3.90;99.90
5834;DHT22;2943;48.012;10.968;2023-02-22T08:42:05;4.00;99.90
5834;DHT22;2943;48.012;10.968;2023-02-22T08:44:33;4.10;99.90
5834;DHT22;2943;48.012;10.968;2023-02-22T08:47:00;4.20;99.90
5834;DHT22;2943;48.012;10.968;2023-02-22T08:49:27;4.30;99.90
5834;DHT22;2943;48.012;10.968;2023-02-22T08:51:54;4.40;99.90
5834;DHT22;2943;48.012;10.968;2023-02-22T08:54:22;4.50;99.90
5834;DHT22;2943;48.012;10.968;2023-02-22T08:56:49;4.60;99.90
5834;DHT22;2943;48.012;10.968;2023-02-22T08:59:16;4.80;99.90
5834;DHT22;2943;48.012;10.968;2023-02-22T09:01:43;4.90;99.90
5834;DHT22;2943;48.012;10.968;2023-02-22T09:04:10;5.10;99.90
5834;DHT22;2943;48.012;10.968;2023-02-22T09:06:39;5.20;99.90
5834;DHT22;2943;48.012;10.968;2023-02-22T09:09:06;5.30;99.90
5834;DHT22;2943;48.012;10.968;2023-02-22T09:11:34;5.50;99.90
5834;DHT22;2943;48.012;10.968;2023-02-22T09:14:01;5.60;99.90
5834;DHT22;2943;48.012;10.968;2023-02-22T09:16:27;5.80;99.90
5834;DHT22;2943;48.012;10.968;2023-02-22T09:18:54;6.00;99.90
5834;DHT22;2943;48.012;10.968;2023-02-22T09:21:21;6.10;99.90
5834;DHT22;2943;48.012;10.968;2023-02-22T09:23:48;6.30;99.90
5834;DHT22;2943;48.012;10.968;2023-02-22T09:26:14;6.40;99.90
5834;DHT22;2943;48.012;10.968;2023-02-22T09:28:42;6.50;99.90
5834;DHT22;2943;48.012;10.968;2023-02-22T09:31:09;6.70;99.90
5834;DHT22;2943;48.012;10.968;2023-02-22T09:33:36;6.80;99.90
5834;DHT22;2943;48.012;10.968;2023-02-22T09:36:03;6.80;99.90
5834;DHT22;2943;48.012;10.968;2023-02-22T09:38:31;6.90;99.90
5834;DHT22;2943;48.012;10.968;2023-02-22T09:41:08;7.00;99.90
5834;DHT22;2943;48.012;10.968;2023-02-22T09:43:40;7.20;99.90
5834;DHT22;2943;48.012;10.968;2023-02-22T09:46:25;7.30;99.90
5834;DHT22;2943;48.012;10.968;2023-02-22T09:48:58;7.40;99.90
5834;DHT22;2943;48.012;10.968;2023-02-22T09:51:29;7.50;99.90
5834;DHT22;2943;48.012;10.968;2023-02-22T09:54:01;7.60;99.90
5834;DHT22;2943;48.012;10.968;2023-02-22T09:56:30;7.70;99.90
5834;DHT22;2943;48.012;10.968;2023-02-22T09:59:00;7.80;99.90
5834;DHT22;2943;48.012;10.968;2023-02-22T10:01:32;8.00;99.90
5834;DHT22;2943;48.012;10.968;2023-02-22T10:04:05;8.10;99.90
5834;DHT22;2943;48.012;10.968;2023-02-22T10:06:36;8.20;99.90
5834;DHT22;2943;48.012;10.968;2023-02-22T10:09:05;8.30;99.90
5834;DHT22;2943;48.012;10.968;2023-02-22T10:11:47;8.40;99.90
5834;DHT22;2943;48.012;10.968;2023-02-22T10:14:36;8.60;99.90
5834;DHT22;2943;48.012;10.968;2023-02-22T10:17:17;8.70;99.90
5834;DHT22;2943;48.012;10.968;2023-02-22T10:19:56;8.80;99.90
5834;DHT22;2943;48.012;10.968;2023-02-22T10:22:44;8.90;99.90
5834;DHT22;2943;48.012;10.968;2023-02-22T10:25:19;9.00;99.90
5834;DHT22;2943;48.012;10.968;2023-02-22T10:27:51;9.00;99.90
5834;DHT22;2943;48.012;10.968;2023-02-22T10:30:22;9.10;99.90
5834;DHT22;2943;48.012;10.968;2023-02-22T10:32:54;9.20;99.90
5834;DHT22;2943;48.012;10.968;2023-02-22T10:35:25;9.20;99.90
5834;DHT22;2943;48.012;10.968;2023-02-22T10:37:57;9.40;99.90
5834;DHT22;2943;48.012;10.968;2023-02-22T10:40:25;9.50;99.90
5834;DHT22;2943;48.012;10.968;2023-02-22T10:43:00;9.60;99.90
5834;DHT22;2943;48.012;10.968;2023-02-22T10:45:29;9.70;99.90
5834;DHT22;2943;48.012;10.968;2023-02-22T10:48:02;9.80;99.90
5834;DHT22;2943;48.012;10.968;2023-02-22T10:50:35;9.90;99.90
5834;DHT22;2943;48.012;10.968;2023-02-22T10:53:04;9.90;99.90
5834;DHT22;2943;48.012;10.968;2023-02-22T10:55:31;10.00;99.90
5834;DHT22;2943;48.012;10.968;2023-02-22T10:58:00;10.00;99.90
5834;DHT22;2943;48.012;10.968;2023-02-22T11:00:32;10.00;99.90
5834;DHT22;2943;48.012;10.968;2023-02-22T11:03:05;10.00;99.90
5834;DHT22;2943;48.012;10.968;2023-02-22T11:05:41;10.00;99.90
5834;DHT22;2943;48.012;10.968;2023-02-22T11:08:21;10.00;99.90
5834;DHT22;2943;48.012;10.968;2023-02-22T11:10:49;10.10;99.90
5834;DHT22;2943;48.012;10.968;2023-02-22T11:13:18;10.10;99.90
5834;DHT22;2943;48.012;10.968;2023-02-22T11:15:44;10.10;99.90
5834;DHT22;2943;48.012;10.968;2023-02-22T11:18:23;10.20;99.90
5834;DHT22;2943;48.012;10.968;2023-02-22T11:20:59;10.20;99.90
5834;DHT22;2943;48.012;10.968;2023-02-22T11:23:26;10.30;99.90
5834;DHT22;2943;48.012;10.968;2023-02-22T11:26:02;10.30;99.90
5834;DHT22;2943;48.012;10.968;2023-02-22T11:28:30;10.40;99.90
5834;DHT22;2943;48.012;10.968;2023-02-22T11:31:07;10.50;99.90
5834;DHT22;2943;48.012;10.968;2023-02-22T11:33:36;10.60;99.90
5834;DHT22;2943;48.012;10.968;2023-02-22T11:36:05;10.60;99.90
5834;DHT22;2943;48.012;10.968;2023-02-22T11:38:35;10.70;99.90
5834;DHT22;2943;48.012;10.968;2023-02-22T11:41:20;10.80;99.90
5834;DHT22;2943;48.012;10.968;2023-02-22T11:43:52;10.90;99.90
5834;DHT22;2943;48.012;10.968;2023-02-22T11:46:20;10.90;99.90
5834;DHT22;2943;48.012;10.968;2023-02-22T11:48:57;11.00;99.90
5834;DHT22;2943;48.012;10.968;2023-02-22T11:51:44;11.10;99.90
5834;DHT22;2943;48.012;10.968;2023-02-22T11:57:18;11.20;99.90
5834;DHT22;2943;48.012;10.968;2023-02-22T12:00:00;11.20;99.90
5834;DHT22;2943;48.012;10.968;2023-02-22T12:02:46;11.20;99.90
5834;DHT22;2943;48.012;10.968;2023-02-22T12:05:24;11.20;99.90
5834;DHT22;2943;48.012;10.968;2023-02-22T12:08:05;11.30;99.90
5834;DHT22;2943;48.012;10.968;2023-02-22T12:10:46;11.40;99.90
5834;DHT22;2943;48.012;10.968;2023-02-22T12:13:29;11.40;99.90
5834;DHT22;2943;48.012;10.968;2023-02-22T12:16:10;11.50;99.90
5834;DHT22;2943;48.012;10.968;2023-02-22T12:18:49;11.60;99.90
5834;DHT22;2943;48.012;10.968;2023-02-22T12:21:25;11.70;99.90
5834;DHT22;2943;48.012;10.968;2023-02-22T12:23:58;11.80;99.90
5834;DHT22;2943;48.012;10.968;2023-02-22T12:26:30;11.80;99.90
5834;DHT22;2943;48.012;10.968;2023-02-22T12:29:02;11.90;99.90
5834;DHT22;2943;48.012;10.968;2023-02-22T12:31:34;11.90;99.90
5834;DHT22;2943;48.012;10.968;2023-02-22T12:34:07;12.00;99.90
5834;DHT22;2943;48.012;10.968;2023-02-22T12:36:40;12.00;99.90
5834;DHT22;2943;48.012;10.968;2023-02-22T12:39:24;12.10;99.90
5834;DHT22;2943;48.012;10.968;2023-02-22T12:41:54;12.10;99.90
5834;DHT22;2943;48.012;10.968;2023-02-22T12:44:25;12.20;99.90
5834;DHT22;2943;48.012;10.968;2023-02-22T12:46:54;12.20;99.90
5834;DHT22;2943;48.012;10.968;2023-02-22T12:49:29;12.20;99.90
5834;DHT22;2943;48.012;10.968;2023-02-22T12:52:02;12.30;99.90
5834;DHT22;2943;48.012;10.968;2023-02-22T12:54:40;12.30;99.90
5834;DHT22;2943;48.012;10.968;2023-02-22T12:57:14;12.40;99.90
5834;DHT22;2943;48.012;10.968;2023-02-22T12:59:47;12.40;99.90
5834;DHT22;2943;48.012;10.968;2023-02-22T13:02:20;12.50;99.90
5834;DHT22;2943;48.012;10.968;2023-02-22T13:04:48;12.50;99.90
5834;DHT22;2943;48.012;10.968;2023-02-22T13:07:26;12.60;99.90
5834;DHT22;2943;48.012;10.968;2023-02-22T13:10:20;12.60;99.90
5834;DHT22;2943;48.012;10.968;2023-02-22T13:12:56;12.70;99.90
5834;DHT22;2943;48.012;10.968;2023-02-22T13:15:31;12.70;99.90
5834;DHT22;2943;48.012;10.968;2023-02-22T13:18:09;12.70;99.90
5834;DHT22;2943;48.012;10.968;2023-02-22T13:20:41;12.70;99.90
5834;DHT22;2943;48.012;10.968;2023-02-22T13:23:17;12.80;99.90
5834;DHT22;2943;48.012;10.968;2023-02-22T13:25:49;12.80;99.90
5834;DHT22;2943;48.012;10.968;2023-02-22T13:28:23;12.90;99.90
5834;DHT22;2943;48.012;10.968;2023-02-22T13:31:17;12.90;99.90
5834;DHT22;2943;48.012;10.968;2023-02-22T13:34:05;12.90;99.90
5834;DHT22;2943;48.012;10.968;2023-02-22T13:36:48;12.90;99.90
5834;DHT22;2943;48.012;10.968;2023-02-22T13:39:45;13.00;99.90
5834;DHT22;2943;48.012;10.968;2023-02-22T13:42:39;13.00;99.90
5834;DHT22;2943;48.012;10.968;2023-02-22T13:48:48;13.10;99.90
5834;DHT22;2943;48.012;10.968;2023-02-22T13:51:30;13.10;99.90
5834;DHT22;2943;48.012;10.968;2023-02-22T13:54:02;13.10;99.90
5834;DHT22;2943;48.012;10.968;2023-02-22T13:56:32;13.10;99.90
5834;DHT22;2943;48.012;10.968;2023-02-22T13:59:01;13.20;99.90
5834;DHT22;2943;48.012;10.968;2023-02-22T14:01:43;13.20;99.90
5834;DHT22;2943;48.012;10.968;2023-02-22T14:04:44;13.20;99.90
5834;DHT22;2943;48.012;10.968;2023-02-22T14:10:43;13.20;99.90
5834;DHT22;2943;48.012;10.968;2023-02-22T14:13:13;13.20;99.90
5834;DHT22;2943;48.012;10.968;2023-02-22T14:16:16;13.20;99.90
5834;DHT22;2943;48.012;10.968;2023-02-22T14:18:44;13.30;99.90
5834;DHT22;2943;48.012;10.968;2023-02-22T14:21:14;13.30;99.90
5834;DHT22;2943;48.012;10.968;2023-02-22T14:23:44;13.30;99.90
5834;DHT22;2943;48.012;10.968;2023-02-22T14:26:15;13.30;99.90
5834;DHT22;2943;48.012;10.968;2023-02-22T14:28:55;13.30;99.90
5834;DHT22;2943;48.012;10.968;2023-02-22T14:31:24;13.30;99.90
5834;DHT22;2943;48.012;10.968;2023-02-22T14:34:06;13.30;99.90
5834;DHT22;2943;48.012;10.968;2023-02-22T14:36:40;13.30;99.90
5834;DHT22;2943;48.012;10.968;2023-02-22T14:39:15;13.20;99.90
5834;DHT22;2943;48.012;10.968;2023-02-22T14:41:47;13.20;99.90
5834;DHT22;2943;48.012;10.968;2023-02-22T14:44:22;13.10;99.90
5834;DHT22;2943;48.012;10.968;2023-02-22T14:46:50;13.10;99.90
5834;DHT22;2943;48.012;10.968;2023-02-22T14:49:20;13.10;99.90
5834;DHT22;2943;48.012;10.968;2023-02-22T14:51:50;13.10;99.90
5834;DHT22;2943;48.012;10.968;2023-02-22T14:54:25;13.10;99.90
5834;DHT22;2943;48.012;10.968;2023-02-22T14:57:01;13.10;99.90
5834;DHT22;2943;48.012;10.968;2023-02-22T14:59:51;13.10;99.90
5834;DHT22;2943;48.012;10.968;2023-02-22T15:02:21;13.20;99.90
5834;DHT22;2943;48.012;10.968;2023-02-22T15:04:51;13.20;99.90
5834;DHT22;2943;48.012;10.968;2023-02-22T15:07:21;13.20;99.90
5834;DHT22;2943;48.012;10.968;2023-02-22T15:10:03;13.20;99.90
5834;DHT22;2943;48.012;10.968;2023-02-22T15:12:31;13.20;99.90
5834;DHT22;2943;48.012;10.968;2023-02-22T15:15:16;13.20;99.90
5834;DHT22;2943;48.012;10.968;2023-02-22T15:17:48;13.20;99.90
5834;DHT22;2943;48.012;10.968;2023-02-22T15:20:19;13.20;99.90
5834;DHT22;2943;48.012;10.968;2023-02-22T15:22:47;13.20;99.90
5834;DHT22;2943;48.012;10.968;2023-02-22T15:25:15;13.20;99.90
5834;DHT22;2943;48.012;10.968;2023-02-22T15:27:44;13.30;99.90
5834;DHT22;2943;48.012;10.968;2023-02-22T15:30:21;13.30;99.90
5834;DHT22;2943;48.012;10.968;2023-02-22T15:32:48;13.30;99.90
5834;DHT22;2943;48.012;10.968;2023-02-22T15:35:17;13.20;99.90
5834;DHT22;2943;48.012;10.968;2023-02-22T15:37:45;13.30;99.90
5834;DHT22;2943;48.012;10.968;2023-02-22T15:40:14;13.20;99.90
5834;DHT22;2943;48.012;10.968;2023-02-22T15:42:44;13.20;99.90
5834;DHT22;2943;48.012;10.968;2023-02-22T15:45:15;13.10;99.90
5834;DHT22;2943;48.012;10.968;2023-02-22T15:47:46;13.10;99.90
5834;DHT22;2943;48.012;10.968;2023-02-22T15:50:17;13.10;99.90
5834;DHT22;2943;48.012;10.968;2023-02-22T15:52:47;13.00;99.90
5834;DHT22;2943;48.012;10.968;2023-02-22T15:55:18;13.00;99.90
5834;DHT22;2943;48.012;10.968;2023-02-22T15:57:46;12.90;99.90
5834;DHT22;2943;48.012;10.968;2023-02-22T16:00:22;12.90;99.90
5834;DHT22;2943;48.012;10.968;2023-02-22T16:02:51;12.80;99.90
5834;DHT22;2943;48.012;10.968;2023-02-22T16:05:18;12.80;99.90
5834;DHT22;2943;48.012;10.968;2023-02-22T16:07:47;12.70;99.90
5834;DHT22;2943;48.012;10.968;2023-02-22T16:10:26;12.70;99.90
5834;DHT22;2943;48.012;10.968;2023-02-22T16:13:08;12.60;99.90
5834;DHT22;2943;48.012;10.968;2023-02-22T16:15:35;12.60;99.90
5834;DHT22;2943;48.012;10.968;2023-02-22T16:18:34;12.60;99.90
5834;DHT22;2943;48.012;10.968;2023-02-22T16:21:05;12.50;99.90
5834;DHT22;2943;48.012;10.968;2023-02-22T16:23:42;12.50;99.90
5834;DHT22;2943;48.012;10.968;2023-02-22T16:26:23;12.40;99.90
5834;DHT22;2943;48.012;10.968;2023-02-22T16:28:51;12.30;99.90
5834;DHT22;2943;48.012;10.968;2023-02-22T16:31:19;12.30;99.90
5834;DHT22;2943;48.012;10.968;2023-02-22T16:33:48;12.20;99.90